sensor_id;sensor_type;location;lat;lon;timestamp;P1;durP1;ratioP1;P2;durP2;ratioP2
58697;SDS011;44475;53.206;-6.106;2024-03-02T00:02:40;3.85;;;1.55;;
58697;SDS011;44475;53.206;-6.106;2024-03-02T00:05:07;3.83;;;1.50;;
58697;SDS011;44475;53.206;-6.106;2024-03-02T00:07:33;2.80;;;1.40;;
58697;SDS011;44475;53.206;-6.106;2024-03-02T00:09:59;2.47;;;1.40;;
58697;SDS011;44475;53.206;-6.106;2024-03-02T00:12:26;2.70;;;1.33;;
58697;SDS011;44475;53.206;-6.106;2024-03-02T00:14:52;2.80;;;1.50;;
58697;SDS011;44475;53.206;-6.106;2024-03-02T00:17:21;3.55;;;1.40;;
58697;SDS011;44475;53.206;-6.106;2024-03-02T00:19:50;3.53;;;1.50;;
58697;SDS011;44475;53.206;-6.106;2024-03-02T00:22:17;2.38;;;1.48;;
58697;SDS011;44475;53.206;-6.106;2024-03-02T00:24:44;2.58;;;1.50;;
58697;SDS011;44475;53.206;-6.106;2024-03-02T00:27:10;3.78;;;1.58;;
58697;SDS011;44475;53.206;-6.106;2024-03-02T00:29:39;3.15;;;1.60;;
58697;SDS011;44475;53.206;-6.106;2024-03-02T00:32:10;2.47;;;1.48;;
58697;SDS011;44475;53.206;-6.106;2024-03-02T00:34:38;2.30;;;1.45;;
58697;SDS011;44475;53.206;-6.106;2024-03-02T00:37:04;3.20;;;1.40;;
58697;SDS011;44475;53.206;-6.106;2024-03-02T00:39:30;3.03;;;1.55;;
58697;SDS011;44475;53.206;-6.106;2024-03-02T00:41:57;3.50;;;1.63;;
58697;SDS011;44475;53.206;-6.106;2024-03-02T00:44:24;2.65;;;1.50;;
58697;SDS011;44475;53.206;-6.106;2024-03-02T00:46:59;3.80;;;1.70;;
58697;SDS011;44475;53.206;-6.106;2024-03-02T00:49:26;3.03;;;1.60;;
58697;SDS011;44475;53.206;-6.106;2024-03-02T00:51:53;3.38;;;1.50;;
58697;SDS011;44475;53.206;-6.106;2024-03-02T00:54:20;2.15;;;1.50;;
58697;SDS011;44475;53.206;-6.106;2024-03-02T00:56:48;2.88;;;1.50;;
58697;SDS011;44475;53.206;-6.106;2024-03-02T00:59:14;2.58;;;1.40;;
58697;SDS011;44475;53.206;-6.106;2024-03-02T01:01:40;3.38;;;1.58;;
58697;SDS011;44475;53.206;-6.106;2024-03-02T01:04:08;2.63;;;1.42;;
58697;SDS011;44475;53.206;-6.106;2024-03-02T01:06:37;1.77;;;1.40;;
58697;SDS011;44475;53.206;-6.106;2024-03-02T01:09:03;3.67;;;1.52;;
58697;SDS011;44475;53.206;-6.106;2024-03-02T01:11:29;2.35;;;1.50;;
58697;SDS011;44475;53.206;-6.106;2024-03-02T01:13:55;2.40;;;1.50;;
58697;SDS011;44475;53.206;-6.106;2024-03-02T01:16:23;3.75;;;1.60;;
58697;SDS011;44475;53.206;-6.106;2024-03-02T01:18:49;2.88;;;1.58;;
58697;SDS011;44475;53.206;-6.106;2024-03-02T01:21:15;2.50;;;1.50;;
58697;SDS011;44475;53.206;-6.106;2024-03-02T01:23:41;2.70;;;1.60;;
58697;SDS011;44475;53.206;-6.106;2024-03-02T01:26:08;2.60;;;1.60;;
58697;SDS011;44475;53.206;-6.106;2024-03-02T01:28:34;3.08;;;1.45;;
58697;SDS011;44475;53.206;-6.106;2024-03-02T01:31:00;2.88;;;1.55;;
58697;SDS011;44475;53.206;-6.106;2024-03-02T01:33:27;3.33;;;1.52;;
58697;SDS011;44475;53.206;-6.106;2024-03-02T01:35:53;4.22;;;1.65;;
58697;SDS011;44475;53.206;-6.106;2024-03-02T01:38:19;2.63;;;1.58;;
58697;SDS011;44475;53.206;-6.106;2024-03-02T01:40:45;2.45;;;1.58;;
58697;SDS011;44475;53.206;-6.106;2024-03-02T01:43:11;1.90;;;1.30;;
58697;SDS011;44475;53.206;-6.106;2024-03-02T01:45:38;3.13;;;1.50;;
58697;SDS011;44475;53.206;-6.106;2024-03-02T01:48:04;3.13;;;1.70;;
58697;SDS011;44475;53.206;-6.106;2024-03-02T01:50:32;2.45;;;1.50;;
58697;SDS011;44475;53.206;-6.106;2024-03-02T01:52:58;2.70;;;1.60;;
58697;SDS011;44475;53.206;-6.106;2024-03-02T01:55:25;2.13;;;1.40;;
58697;SDS011;44475;53.206;-6.106;2024-03-02T01:57:52;3.15;;;1.58;;
58697;SDS011;44475;53.206;-6.106;2024-03-02T02:00:19;2.50;;;1.50;;
58697;SDS011;44475;53.206;-6.106;2024-03-02T02:02:46;2.13;;;1.48;;
58697;SDS011;44475;53.206;-6.106;2024-03-02T02:05:12;2.97;;;1.50;;
58697;SDS011;44475;53.206;-6.106;2024-03-02T02:07:39;1.83;;;1.40;;
58697;SDS011;44475;53.206;-6.106;2024-03-02T02:10:06;3.40;;;1.67;;
58697;SDS011;44475;53.206;-6.106;2024-03-02T02:12:33;3.03;;;1.58;;
58697;SDS011;44475;53.206;-6.106;2024-03-02T02:14:59;2.10;;;1.40;;
58697;SDS011;44475;53.206;-6.106;2024-03-02T02:17:25;2.88;;;1.63;;
58697;SDS011;44475;53.206;-6.106;2024-03-02T02:19:51;2.03;;;1.50;;
58697;SDS011;44475;53.206;-6.106;2024-03-02T02:22:17;4.32;;;1.70;;
58697;SDS011;44475;53.206;-6.106;2024-03-02T02:24:44;3.25;;;1.60;;
58697;SDS011;44475;53.206;-6.106;2024-03-02T02:27:10;2.88;;;1.60;;
58697;SDS011;44475;53.206;-6.106;2024-03-02T02:29:39;2.65;;;1.58;;
58697;SDS011;44475;53.206;-6.106;2024-03-02T02:32:05;2.50;;;1.60;;
58697;SDS011;44475;53.206;-6.106;2024-03-02T02:34:32;2.17;;;1.50;;
58697;SDS011;44475;53.206;-6.106;2024-03-02T02:36:58;3.35;;;1.60;;
58697;SDS011;44475;53.206;-6.106;2024-03-02T02:39:24;3.15;;;1.50;;
58697;SDS011;44475;53.206;-6.106;2024-03-02T02:41:51;2.20;;;1.58;;
58697;SDS011;44475;53.206;-6.106;2024-03-02T02:44:17;2.45;;;1.50;;
58697;SDS011;44475;53.206;-6.106;2024-03-02T02:46:43;2.17;;;1.50;;
58697;SDS011;44475;53.206;-6.106;2024-03-02T02:49:09;1.95;;;1.40;;
58697;SDS011;44475;53.206;-6.106;2024-03-02T02:51:35;2.63;;;1.50;;
58697;SDS011;44475;53.206;-6.106;2024-03-02T02:54:01;1.45;;;1.33;;
58697;SDS011;44475;53.206;-6.106;2024-03-02T02:56:27;2.28;;;1.50;;
58697;SDS011;44475;53.206;-6.106;2024-03-02T02:58:54;3.30;;;1.60;;
58697;SDS011;44475;53.206;-6.106;2024-03-02T03:01:20;3.25;;;1.52;;
58697;SDS011;44475;53.206;-6.106;2024-03-02T03:03:46;1.75;;;1.30;;
58697;SDS011;44475;53.206;-6.106;2024-03-02T03:06:12;3.35;;;1.80;;
58697;SDS011;44475;53.206;-6.106;2024-03-02T03:08:39;1.95;;;1.50;;
58697;SDS011;44475;53.206;-6.106;2024-03-02T03:11:05;2.45;;;1.58;;
58697;SDS011;44475;53.206;-6.106;2024-03-02T03:13:31;2.58;;;1.50;;
58697;SDS011;44475;53.206;-6.106;2024-03-02T03:15:58;2.58;;;1.67;;
58697;SDS011;44475;53.206;-6.106;2024-03-02T03:18:24;2.80;;;1.50;;
58697;SDS011;44475;53.206;-6.106;2024-03-02T03:20:50;2.95;;;1.63;;
58697;SDS011;44475;53.206;-6.106;2024-03-02T03:23:16;2.05;;;1.40;;
58697;SDS011;44475;53.206;-6.106;2024-03-02T03:25:43;3.33;;;1.40;;
58697;SDS011;44475;53.206;-6.106;2024-03-02T03:28:09;2.88;;;1.50;;
58697;SDS011;44475;53.206;-6.106;2024-03-02T03:30:38;2.13;;;1.40;;
58697;SDS011;44475;53.206;-6.106;2024-03-02T03:33:05;1.83;;;1.50;;
58697;SDS011;44475;53.206;-6.106;2024-03-02T03:35:31;2.20;;;1.60;;
58697;SDS011;44475;53.206;-6.106;2024-03-02T03:37:58;3.28;;;1.60;;
58697;SDS011;44475;53.206;-6.106;2024-03-02T03:40:24;3.10;;;1.70;;
58697;SDS011;44475;53.206;-6.106;2024-03-02T03:42:50;2.58;;;1.50;;
58697;SDS011;44475;53.206;-6.106;2024-03-02T03:45:16;2.90;;;1.48;;
58697;SDS011;44475;53.206;-6.106;2024-03-02T03:47:42;2.58;;;1.52;;
58697;SDS011;44475;53.206;-6.106;2024-03-02T03:50:09;2.65;;;1.50;;
58697;SDS011;44475;53.206;-6.106;2024-03-02T03:52:35;3.20;;;1.50;;
58697;SDS011;44475;53.206;-6.106;2024-03-02T03:55:01;2.60;;;1.45;;
58697;SDS011;44475;53.206;-6.106;2024-03-02T03:57:27;3.78;;;1.50;;
58697;SDS011;44475;53.206;-6.106;2024-03-02T03:59:53;3.20;;;1.50;;
58697;SDS011;44475;53.206;-6.106;2024-03-02T04:02:19;2.00;;;1.40;;
58697;SDS011;44475;53.206;-6.106;2024-03-02T04:04:45;2.53;;;1.60;;
58697;SDS011;44475;53.206;-6.106;2024-03-02T04:07:12;2.72;;;1.40;;
58697;SDS011;44475;53.206;-6.106;2024-03-02T04:09:38;2.72;;;1.60;;
58697;SDS011;44475;53.206;-6.106;2024-03-02T04:12:04;3.30;;;1.50;;
58697;SDS011;44475;53.206;-6.106;2024-03-02T04:14:30;4.10;;;1.60;;
58697;SDS011;44475;53.206;-6.106;2024-03-02T04:16:57;3.65;;;1.70;;
58697;SDS011;44475;53.206;-6.106;2024-03-02T04:19:23;2.58;;;1.50;;
58697;SDS011;44475;53.206;-6.106;2024-03-02T04:21:49;2.88;;;1.50;;
58697;SDS011;44475;53.206;-6.106;2024-03-02T04:24:15;2.10;;;1.40;;
58697;SDS011;44475;53.206;-6.106;2024-03-02T04:26:41;2.03;;;1.42;;
58697;SDS011;44475;53.206;-6.106;2024-03-02T04:29:07;2.72;;;1.48;;
58697;SDS011;44475;53.206;-6.106;2024-03-02T04:31:33;2.30;;;1.35;;
58697;SDS011;44475;53.206;-6.106;2024-03-02T04:33:59;2.00;;;1.40;;
58697;SDS011;44475;53.206;-6.106;2024-03-02T04:36:25;2.55;;;1.42;;
58697;SDS011;44475;53.206;-6.106;2024-03-02T04:38:52;2.00;;;1.40;;
58697;SDS011;44475;53.206;-6.106;2024-03-02T04:41:18;2.72;;;1.45;;
58697;SDS011;44475;53.206;-6.106;2024-03-02T04:43:44;3.00;;;1.42;;
58697;SDS011;44475;53.206;-6.106;2024-03-02T04:46:10;2.83;;;1.40;;
58697;SDS011;44475;53.206;-6.106;2024-03-02T04:48:36;2.63;;;1.42;;
58697;SDS011;44475;53.206;-6.106;2024-03-02T04:51:02;2.97;;;1.48;;
58697;SDS011;44475;53.206;-6.106;2024-03-02T04:53:28;2.13;;;1.42;;
58697;SDS011;44475;53.206;-6.106;2024-03-02T04:55:55;2.20;;;1.40;;
58697;SDS011;44475;53.206;-6.106;2024-03-02T04:58:21;2.35;;;1.45;;
58697;SDS011;44475;53.206;-6.106;2024-03-02T05:00:47;2.65;;;1.70;;
58697;SDS011;44475;53.206;-6.106;2024-03-02T05:03:13;2.85;;;1.60;;
58697;SDS011;44475;53.206;-6.106;2024-03-02T05:05:39;3.50;;;1.60;;
58697;SDS011;44475;53.206;-6.106;2024-03-02T05:08:05;2.28;;;1.30;;
58697;SDS011;44475;53.206;-6.106;2024-03-02T05:10:32;1.98;;;1.42;;
58697;SDS011;44475;53.206;-6.106;2024-03-02T05:12:58;2.72;;;1.70;;
58697;SDS011;44475;53.206;-6.106;2024-03-02T05:15:24;2.50;;;1.50;;
58697;SDS011;44475;53.206;-6.106;2024-03-02T05:17:51;2.67;;;1.55;;
58697;SDS011;44475;53.206;-6.106;2024-03-02T05:20:17;2.00;;;1.40;;
58697;SDS011;44475;53.206;-6.106;2024-03-02T05:22:44;2.25;;;1.50;;
58697;SDS011;44475;53.206;-6.106;2024-03-02T05:25:10;2.65;;;1.50;;
58697;SDS011;44475;53.206;-6.106;2024-03-02T05:27:36;2.30;;;1.40;;
58697;SDS011;44475;53.206;-6.106;2024-03-02T05:30:02;2.20;;;1.40;;
58697;SDS011;44475;53.206;-6.106;2024-03-02T05:32:31;2.40;;;1.50;;
58697;SDS011;44475;53.206;-6.106;2024-03-02T05:34:57;2.30;;;1.45;;
58697;SDS011;44475;53.206;-6.106;2024-03-02T05:37:23;2.30;;;1.50;;
58697;SDS011;44475;53.206;-6.106;2024-03-02T05:39:49;1.88;;;1.30;;
58697;SDS011;44475;53.206;-6.106;2024-03-02T05:42:16;2.05;;;1.40;;
58697;SDS011;44475;53.206;-6.106;2024-03-02T05:44:42;2.35;;;1.20;;
58697;SDS011;44475;53.206;-6.106;2024-03-02T05:47:08;2.67;;;1.50;;
58697;SDS011;44475;53.206;-6.106;2024-03-02T05:49:35;3.47;;;1.55;;
58697;SDS011;44475;53.206;-6.106;2024-03-02T05:52:01;2.33;;;1.38;;
58697;SDS011;44475;53.206;-6.106;2024-03-02T05:54:28;2.08;;;1.50;;
58697;SDS011;44475;53.206;-6.106;2024-03-02T05:56:54;2.85;;;1.40;;
58697;SDS011;44475;53.206;-6.106;2024-03-02T05:59:20;5.97;;;1.50;;
58697;SDS011;44475;53.206;-6.106;2024-03-02T06:01:46;3.65;;;1.58;;
58697;SDS011;44475;53.206;-6.106;2024-03-02T06:04:15;3.40;;;1.60;;
58697;SDS011;44475;53.206;-6.106;2024-03-02T06:06:41;2.55;;;1.30;;
58697;SDS011;44475;53.206;-6.106;2024-03-02T06:09:08;2.60;;;1.45;;
58697;SDS011;44475;53.206;-6.106;2024-03-02T06:11:34;3.35;;;1.52;;
58697;SDS011;44475;53.206;-6.106;2024-03-02T06:14:01;2.30;;;1.30;;
58697;SDS011;44475;53.206;-6.106;2024-03-02T06:16:27;3.05;;;1.50;;
58697;SDS011;44475;53.206;-6.106;2024-03-02T06:18:55;2.58;;;1.40;;
58697;SDS011;44475;53.206;-6.106;2024-03-02T06:21:23;2.50;;;1.20;;
58697;SDS011;44475;53.206;-6.106;2024-03-02T06:23:49;3.88;;;1.40;;
58697;SDS011;44475;53.206;-6.106;2024-03-02T06:26:15;2.58;;;1.30;;
58697;SDS011;44475;53.206;-6.106;2024-03-02T06:28:41;2.42;;;1.30;;
58697;SDS011;44475;53.206;-6.106;2024-03-02T06:31:08;5.18;;;1.50;;
58697;SDS011;44475;53.206;-6.106;2024-03-02T06:33:34;3.15;;;1.42;;
58697;SDS011;44475;53.206;-6.106;2024-03-02T06:36:00;2.53;;;1.40;;
58697;SDS011;44475;53.206;-6.106;2024-03-02T06:38:26;3.85;;;1.50;;
58697;SDS011;44475;53.206;-6.106;2024-03-02T06:40:53;3.25;;;1.55;;
58697;SDS011;44475;53.206;-6.106;2024-03-02T06:43:20;2.50;;;1.38;;
58697;SDS011;44475;53.206;-6.106;2024-03-02T06:45:52;2.35;;;1.30;;
58697;SDS011;44475;53.206;-6.106;2024-03-02T06:48:18;2.70;;;1.50;;
58697;SDS011;44475;53.206;-6.106;2024-03-02T06:50:49;2.50;;;1.40;;
58697;SDS011;44475;53.206;-6.106;2024-03-02T06:53:15;1.98;;;1.25;;
58697;SDS011;44475;53.206;-6.106;2024-03-02T06:55:45;3.83;;;1.40;;
58697;SDS011;44475;53.206;-6.106;2024-03-02T06:58:12;2.63;;;1.25;;
58697;SDS011;44475;53.206;-6.106;2024-03-02T07:00:40;2.28;;;1.30;;
58697;SDS011;44475;53.206;-6.106;2024-03-02T07:03:06;3.00;;;1.60;;
58697;SDS011;44475;53.206;-6.106;2024-03-02T07:05:32;1.90;;;1.42;;
58697;SDS011;44475;53.206;-6.106;2024-03-02T07:07:58;1.90;;;1.35;;
58697;SDS011;44475;53.206;-6.106;2024-03-02T07:10:26;1.90;;;1.20;;
58697;SDS011;44475;53.206;-6.106;2024-03-02T07:12:52;1.75;;;1.30;;
58697;SDS011;44475;53.206;-6.106;2024-03-02T07:15:18;2.42;;;1.30;;
58697;SDS011;44475;53.206;-6.106;2024-03-02T07:17:53;2.33;;;1.23;;
58697;SDS011;44475;53.206;-6.106;2024-03-02T07:20:20;1.73;;;1.20;;
58697;SDS011;44475;53.206;-6.106;2024-03-02T07:22:46;2.35;;;1.20;;
58697;SDS011;44475;53.206;-6.106;2024-03-02T07:25:12;2.67;;;1.40;;
58697;SDS011;44475;53.206;-6.106;2024-03-02T07:27:38;3.03;;;1.50;;
58697;SDS011;44475;53.206;-6.106;2024-03-02T07:30:05;2.60;;;1.20;;
58697;SDS011;44475;53.206;-6.106;2024-03-02T07:32:32;2.40;;;1.40;;
58697;SDS011;44475;53.206;-6.106;2024-03-02T07:34:58;2.38;;;1.40;;
58697;SDS011;44475;53.206;-6.106;2024-03-02T07:37:24;2.70;;;1.30;;
58697;SDS011;44475;53.206;-6.106;2024-03-02T07:39:50;2.63;;;1.35;;
58697;SDS011;44475;53.206;-6.106;2024-03-02T07:42:17;2.17;;;1.23;;
58697;SDS011;44475;53.206;-6.106;2024-03-02T07:44:44;1.60;;;1.20;;
58697;SDS011;44475;53.206;-6.106;2024-03-02T07:47:10;1.65;;;1.20;;
58697;SDS011;44475;53.206;-6.106;2024-03-02T07:49:37;2.03;;;1.33;;
58697;SDS011;44475;53.206;-6.106;2024-03-02T07:52:03;1.92;;;1.38;;
58697;SDS011;44475;53.206;-6.106;2024-03-02T07:54:29;1.65;;;1.30;;
58697;SDS011;44475;53.206;-6.106;2024-03-02T07:56:55;2.33;;;1.50;;
58697;SDS011;44475;53.206;-6.106;2024-03-02T07:59:21;1.52;;;1.17;;
58697;SDS011;44475;53.206;-6.106;2024-03-02T08:01:48;1.42;;;1.15;;
58697;SDS011;44475;53.206;-6.106;2024-03-02T08:04:15;2.03;;;1.20;;
58697;SDS011;44475;53.206;-6.106;2024-03-02T08:06:42;2.05;;;1.20;;
58697;SDS011;44475;53.206;-6.106;2024-03-02T08:09:08;2.83;;;1.42;;
58697;SDS011;44475;53.206;-6.106;2024-03-02T08:11:35;2.97;;;1.40;;
58697;SDS011;44475;53.206;-6.106;2024-03-02T08:14:02;2.35;;;1.27;;
58697;SDS011;44475;53.206;-6.106;2024-03-02T08:16:28;1.92;;;1.02;;
58697;SDS011;44475;53.206;-6.106;2024-03-02T08:18:54;2.17;;;1.25;;
58697;SDS011;44475;53.206;-6.106;2024-03-02T08:21:23;2.78;;;1.27;;
58697;SDS011;44475;53.206;-6.106;2024-03-02T08:23:49;2.20;;;1.00;;
58697;SDS011;44475;53.206;-6.106;2024-03-02T08:26:16;1.63;;;1.10;;
58697;SDS011;44475;53.206;-6.106;2024-03-02T08:28:42;2.17;;;1.30;;
58697;SDS011;44475;53.206;-6.106;2024-03-02T08:31:08;3.63;;;1.25;;
58697;SDS011;44475;53.206;-6.106;2024-03-02T08:33:34;1.77;;;1.10;;
58697;SDS011;44475;53.206;-6.106;2024-03-02T08:36:01;1.35;;;1.10;;
58697;SDS011;44475;53.206;-6.106;2024-03-02T08:38:27;1.95;;;1.17;;
58697;SDS011;44475;53.206;-6.106;2024-03-02T08:40:54;1.98;;;1.10;;
58697;SDS011;44475;53.206;-6.106;2024-03-02T08:43:20;1.73;;;1.10;;
58697;SDS011;44475;53.206;-6.106;2024-03-02T08:45:47;1.67;;;1.10;;
58697;SDS011;44475;53.206;-6.106;2024-03-02T08:48:14;1.33;;;1.10;;
58697;SDS011;44475;53.206;-6.106;2024-03-02T08:50:40;2.45;;;1.15;;
58697;SDS011;44475;53.206;-6.106;2024-03-02T08:53:06;1.90;;;1.13;;
58697;SDS011;44475;53.206;-6.106;2024-03-02T08:55:32;1.20;;;1.10;;
58697;SDS011;44475;53.206;-6.106;2024-03-02T08:57:59;1.30;;;1.20;;
58697;SDS011;44475;53.206;-6.106;2024-03-02T09:00:25;2.22;;;1.25;;
58697;SDS011;44475;53.206;-6.106;2024-03-02T09:02:51;1.23;;;1.13;;
58697;SDS011;44475;53.206;-6.106;2024-03-02T09:05:17;1.30;;;1.00;;
58697;SDS011;44475;53.206;-6.106;2024-03-02T09:07:44;1.27;;;1.15;;
58697;SDS011;44475;53.206;-6.106;2024-03-02T09:10:10;1.10;;;1.00;;
58697;SDS011;44475;53.206;-6.106;2024-03-02T09:12:36;1.65;;;1.10;;
58697;SDS011;44475;53.206;-6.106;2024-03-02T09:15:04;1.88;;;1.20;;
58697;SDS011;44475;53.206;-6.106;2024-03-02T09:17:31;1.00;;;1.00;;
58697;SDS011;44475;53.206;-6.106;2024-03-02T09:19:57;1.33;;;1.05;;
58697;SDS011;44475;53.206;-6.106;2024-03-02T09:22:23;2.20;;;1.20;;
58697;SDS011;44475;53.206;-6.106;2024-03-02T09:24:49;2.28;;;1.30;;
58697;SDS011;44475;53.206;-6.106;2024-03-02T09:27:15;0.98;;;0.90;;
58697;SDS011;44475;53.206;-6.106;2024-03-02T09:29:41;2.55;;;1.23;;
58697;SDS011;44475;53.206;-6.106;2024-03-02T09:32:08;1.38;;;1.08;;
58697;SDS011;44475;53.206;-6.106;2024-03-02T09:34:34;1.08;;;1.00;;
58697;SDS011;44475;53.206;-6.106;2024-03-02T09:37:00;1.40;;;1.05;;
58697;SDS011;44475;53.206;-6.106;2024-03-02T09:39:27;1.40;;;1.13;;
58697;SDS011;44475;53.206;-6.106;2024-03-02T09:41:53;1.73;;;1.13;;
58697;SDS011;44475;53.206;-6.106;2024-03-02T09:44:19;1.10;;;1.00;;
58697;SDS011;44475;53.206;-6.106;2024-03-02T09:46:50;0.95;;;0.95;;
58697;SDS011;44475;53.206;-6.106;2024-03-02T09:49:16;1.27;;;1.02;;
58697;SDS011;44475;53.206;-6.106;2024-03-02T09:51:46;1.60;;;1.10;;
58697;SDS011;44475;53.206;-6.106;2024-03-02T09:54:12;1.15;;;1.05;;
58697;SDS011;44475;53.206;-6.106;2024-03-02T09:56:39;1.25;;;1.10;;
58697;SDS011;44475;53.206;-6.106;2024-03-02T09:59:05;1.10;;;1.00;;
58697;SDS011;44475;53.206;-6.106;2024-03-02T10:01:31;1.27;;;1.10;;
58697;SDS011;44475;53.206;-6.106;2024-03-02T10:04:00;1.15;;;1.00;;
58697;SDS011;44475;53.206;-6.106;2024-03-02T10:06:30;1.17;;;1.08;;
58697;SDS011;44475;53.206;-6.106;2024-03-02T10:08:56;1.80;;;1.10;;
58697;SDS011;44475;53.206;-6.106;2024-03-02T10:11:26;1.55;;;1.10;;
58697;SDS011;44475;53.206;-6.106;2024-03-02T10:14:09;1.63;;;1.10;;
58697;SDS011;44475;53.206;-6.106;2024-03-02T10:16:36;1.57;;;1.10;;
58697;SDS011;44475;53.206;-6.106;2024-03-02T10:19:19;1.98;;;1.23;;
58697;SDS011;44475;53.206;-6.106;2024-03-02T10:21:47;1.23;;;1.10;;
58697;SDS011;44475;53.206;-6.106;2024-03-02T10:24:14;1.30;;;1.00;;
58697;SDS011;44475;53.206;-6.106;2024-03-02T10:26:41;1.77;;;1.10;;
58697;SDS011;44475;53.206;-6.106;2024-03-02T10:29:08;1.45;;;1.13;;
58697;SDS011;44475;53.206;-6.106;2024-03-02T10:31:36;1.65;;;0.93;;
58697;SDS011;44475;53.206;-6.106;2024-03-02T10:34:02;1.27;;;1.10;;
58697;SDS011;44475;53.206;-6.106;2024-03-02T10:36:29;1.00;;;0.90;;
58697;SDS011;44475;53.206;-6.106;2024-03-02T10:38:58;1.50;;;1.08;;
58697;SDS011;44475;53.206;-6.106;2024-03-02T10:41:26;1.30;;;1.05;;
58697;SDS011;44475;53.206;-6.106;2024-03-02T10:43:53;1.45;;;1.10;;
58697;SDS011;44475;53.206;-6.106;2024-03-02T10:46:26;1.08;;;0.98;;
58697;SDS011;44475;53.206;-6.106;2024-03-02T10:48:54;2.17;;;1.08;;
58697;SDS011;44475;53.206;-6.106;2024-03-02T10:51:21;2.42;;;1.30;;
58697;SDS011;44475;53.206;-6.106;2024-03-02T10:53:47;1.10;;;1.00;;
58697;SDS011;44475;53.206;-6.106;2024-03-02T10:56:15;1.30;;;1.20;;
58697;SDS011;44475;53.206;-6.106;2024-03-02T10:58:42;1.90;;;1.10;;
58697;SDS011;44475;53.206;-6.106;2024-03-02T11:01:08;1.20;;;1.10;;
58697;SDS011;44475;53.206;-6.106;2024-03-02T11:03:36;1.50;;;0.95;;
58697;SDS011;44475;53.206;-6.106;2024-03-02T11:06:03;1.30;;;1.20;;
58697;SDS011;44475;53.206;-6.106;2024-03-02T11:08:31;1.50;;;1.30;;
58697;SDS011;44475;53.206;-6.106;2024-03-02T11:11:03;1.20;;;1.10;;
58697;SDS011;44475;53.206;-6.106;2024-03-02T11:13:32;1.00;;;0.90;;
58697;SDS011;44475;53.206;-6.106;2024-03-02T11:16:09;1.55;;;1.20;;
58697;SDS011;44475;53.206;-6.106;2024-03-02T11:18:38;2.50;;;1.10;;
58697;SDS011;44475;53.206;-6.106;2024-03-02T11:21:05;1.10;;;1.10;;
58697;SDS011;44475;53.206;-6.106;2024-03-02T11:23:32;1.40;;;1.00;;
58697;SDS011;44475;53.206;-6.106;2024-03-02T11:26:18;1.63;;;1.10;;
58697;SDS011;44475;53.206;-6.106;2024-03-02T11:28:44;1.58;;;1.20;;
58697;SDS011;44475;53.206;-6.106;2024-03-02T11:31:10;1.65;;;1.13;;
58697;SDS011;44475;53.206;-6.106;2024-03-02T11:33:37;1.10;;;1.00;;
58697;SDS011;44475;53.206;-6.106;2024-03-02T11:36:03;2.75;;;1.25;;
58697;SDS011;44475;53.206;-6.106;2024-03-02T11:38:33;1.83;;;1.10;;
58697;SDS011;44475;53.206;-6.106;2024-03-02T11:40:59;1.27;;;1.17;;
58697;SDS011;44475;53.206;-6.106;2024-03-02T11:43:27;1.25;;;1.10;;
58697;SDS011;44475;53.206;-6.106;2024-03-02T11:45:57;1.90;;;1.17;;
58697;SDS011;44475;53.206;-6.106;2024-03-02T11:48:24;1.88;;;1.10;;
58697;SDS011;44475;53.206;-6.106;2024-03-02T11:50:51;3.35;;;1.30;;
58697;SDS011;44475;53.206;-6.106;2024-03-02T11:53:20;2.50;;;1.15;;
58697;SDS011;44475;53.206;-6.106;2024-03-02T11:55:46;1.52;;;1.10;;
58697;SDS011;44475;53.206;-6.106;2024-03-02T11:58:14;1.65;;;1.20;;
58697;SDS011;44475;53.206;-6.106;2024-03-02T12:00:43;1.63;;;1.00;;
58697;SDS011;44475;53.206;-6.106;2024-03-02T12:03:11;2.28;;;1.20;;
58697;SDS011;44475;53.206;-6.106;2024-03-02T12:05:37;3.47;;;1.20;;
58697;SDS011;44475;53.206;-6.106;2024-03-02T12:08:05;2.60;;;1.25;;
58697;SDS011;44475;53.206;-6.106;2024-03-02T12:10:31;4.28;;;1.25;;
58697;SDS011;44475;53.206;-6.106;2024-03-02T12:12:58;2.03;;;1.10;;
58697;SDS011;44475;53.206;-6.106;2024-03-02T12:15:29;1.23;;;1.10;;
58697;SDS011;44475;53.206;-6.106;2024-03-02T12:17:56;1.73;;;1.25;;
58697;SDS011;44475;53.206;-6.106;2024-03-02T12:20:22;2.03;;;1.17;;
58697;SDS011;44475;53.206;-6.106;2024-03-02T12:22:51;2.58;;;1.13;;
58697;SDS011;44475;53.206;-6.106;2024-03-02T12:25:18;1.90;;;1.17;;
58697;SDS011;44475;53.206;-6.106;2024-03-02T12:27:44;1.67;;;0.98;;
58697;SDS011;44475;53.206;-6.106;2024-03-02T12:30:11;2.10;;;1.17;;
58697;SDS011;44475;53.206;-6.106;2024-03-02T12:32:39;1.17;;;1.10;;
58697;SDS011;44475;53.206;-6.106;2024-03-02T12:35:05;1.15;;;1.05;;
58697;SDS011;44475;53.206;-6.106;2024-03-02T12:37:31;1.33;;;1.10;;
58697;SDS011;44475;53.206;-6.106;2024-03-02T12:39:58;1.15;;;1.00;;
58697;SDS011;44475;53.206;-6.106;2024-03-02T12:42:25;1.27;;;1.02;;
58697;SDS011;44475;53.206;-6.106;2024-03-02T12:44:54;1.10;;;1.00;;
58697;SDS011;44475;53.206;-6.106;2024-03-02T12:47:20;1.13;;;0.90;;
58697;SDS011;44475;53.206;-6.106;2024-03-02T12:49:46;1.73;;;1.08;;
58697;SDS011;44475;53.206;-6.106;2024-03-02T12:52:13;0.98;;;0.98;;
58697;SDS011;44475;53.206;-6.106;2024-03-02T12:54:39;1.20;;;1.10;;
58697;SDS011;44475;53.206;-6.106;2024-03-02T12:57:05;1.85;;;1.05;;
58697;SDS011;44475;53.206;-6.106;2024-03-02T12:59:31;1.63;;;1.05;;
58697;SDS011;44475;53.206;-6.106;2024-03-02T13:01:57;1.15;;;1.00;;
58697;SDS011;44475;53.206;-6.106;2024-03-02T13:04:27;1.67;;;1.10;;
58697;SDS011;44475;53.206;-6.106;2024-03-02T13:06:54;0.98;;;0.98;;
58697;SDS011;44475;53.206;-6.106;2024-03-02T13:09:22;0.88;;;0.88;;
58697;SDS011;44475;53.206;-6.106;2024-03-02T13:11:49;1.10;;;1.00;;
58697;SDS011;44475;53.206;-6.106;2024-03-02T13:14:15;1.25;;;1.00;;
58697;SDS011;44475;53.206;-6.106;2024-03-02T13:16:41;2.33;;;1.20;;
58697;SDS011;44475;53.206;-6.106;2024-03-02T13:19:08;1.25;;;0.90;;
58697;SDS011;44475;53.206;-6.106;2024-03-02T13:21:35;1.30;;;1.00;;
58697;SDS011;44475;53.206;-6.106;2024-03-02T13:24:01;1.13;;;1.00;;
58697;SDS011;44475;53.206;-6.106;2024-03-02T13:26:28;0.90;;;0.90;;
58697;SDS011;44475;53.206;-6.106;2024-03-02T13:28:54;1.13;;;1.00;;
58697;SDS011;44475;53.206;-6.106;2024-03-02T13:31:20;1.10;;;1.00;;
58697;SDS011;44475;53.206;-6.106;2024-03-02T13:33:47;1.85;;;0.98;;
58697;SDS011;44475;53.206;-6.106;2024-03-02T13:36:13;1.60;;;1.00;;
58697;SDS011;44475;53.206;-6.106;2024-03-02T13:38:39;1.42;;;1.02;;
58697;SDS011;44475;53.206;-6.106;2024-03-02T13:41:05;1.20;;;1.02;;
58697;SDS011;44475;53.206;-6.106;2024-03-02T13:43:31;1.23;;;1.00;;
58697;SDS011;44475;53.206;-6.106;2024-03-02T13:45:58;0.93;;;0.90;;
58697;SDS011;44475;53.206;-6.106;2024-03-02T13:48:25;1.30;;;1.10;;
58697;SDS011;44475;53.206;-6.106;2024-03-02T13:50:51;2.45;;;1.10;;
58697;SDS011;44475;53.206;-6.106;2024-03-02T13:53:18;1.05;;;0.95;;
58697;SDS011;44475;53.206;-6.106;2024-03-02T13:55:44;0.85;;;0.85;;
58697;SDS011;44475;53.206;-6.106;2024-03-02T13:58:10;1.00;;;1.00;;
58697;SDS011;44475;53.206;-6.106;2024-03-02T14:00:37;0.95;;;0.90;;
58697;SDS011;44475;53.206;-6.106;2024-03-02T14:03:04;1.33;;;0.90;;
58697;SDS011;44475;53.206;-6.106;2024-03-02T14:05:30;1.05;;;0.98;;
58697;SDS011;44475;53.206;-6.106;2024-03-02T14:07:56;1.15;;;1.05;;
58697;SDS011;44475;53.206;-6.106;2024-03-02T14:10:22;1.10;;;1.00;;
58697;SDS011;44475;53.206;-6.106;2024-03-02T14:12:48;1.50;;;1.10;;
58697;SDS011;44475;53.206;-6.106;2024-03-02T14:15:15;1.00;;;1.00;;
58697;SDS011;44475;53.206;-6.106;2024-03-02T14:17:41;0.82;;;0.82;;
58697;SDS011;44475;53.206;-6.106;2024-03-02T14:20:08;1.10;;;1.00;;
58697;SDS011;44475;53.206;-6.106;2024-03-02T14:22:36;1.10;;;1.00;;
58697;SDS011;44475;53.206;-6.106;2024-03-02T14:25:03;0.90;;;0.90;;
58697;SDS011;44475;53.206;-6.106;2024-03-02T14:27:29;0.90;;;0.90;;
58697;SDS011;44475;53.206;-6.106;2024-03-02T14:29:56;1.08;;;1.00;;
58697;SDS011;44475;53.206;-6.106;2024-03-02T14:32:22;0.93;;;0.90;;